METAR Data
IDs: Format: Raw Decoded Include TAF

Data at: 2127 UTC 18 Sep 2018

K08D 182115Z AUTO VRB06G12KT 10SM 18/08 A3003 RMK AO2
K08D 182055Z AUTO 10009KT 060V120 10SM 18/09 A3004 RMK AO2
K08D 182035Z AUTO 06006KT 10SM 18/09 A3004 RMK AO2
K08D 182015Z AUTO 12005G10KT 10SM 17/09 A3005 RMK AO2
K08D 181955Z AUTO 14006KT 10SM 17/08 A3007 RMK AO2
K08D 181935Z AUTO VRB06G11KT 10SM 17/09 A3007 RMK AO2
K08D 181915Z AUTO 08007KT 050V110 10SM 17/08 A3007 RMK AO2
K08D 181855Z AUTO 12007KT 080V140 10SM 17/08 A3008 RMK AO2
K08D 181835Z AUTO VRB03KT 10SM 16/08 A3008 RMK AO2
K08D 181815Z AUTO VRB04KT 10SM 16/09 A3008 RMK AO2
K08D 181755Z AUTO VRB05KT 10SM 15/09 A3009 RMK AO2
K08D 181735Z AUTO VRB05KT 10SM 15/09 A3010 RMK AO2
K08D 181715Z AUTO 01007KT 10SM 15/09 A3010 RMK AO2
K08D 181655Z AUTO 03006G12KT 10SM 14/09 A3010 RMK AO2
K08D 181635Z AUTO VRB05KT 10SM 14/10 A3010 RMK AO2
K08D 181615Z AUTO 02007KT 10SM 13/10 A3010 RMK AO2
K08D 181555Z AUTO 04007KT 10SM 12/10 A3011 RMK AO2
K08D 181535Z AUTO 04007KT 10SM 12/10 A3011 RMK AO2
K08D 181515Z AUTO VRB04KT 10SM 11/10 A3011 RMK AO2
K08D 181455Z AUTO VRB04KT 10SM 09/09 A3011 RMK AO2
K08D 181435Z AUTO 11004KT 10SM 08/08 A3011 RMK AO2
K08D 181415Z AUTO 00000KT 10SM 09/09 A3010 RMK AO2
K08D 181355Z AUTO 01007KT 10SM 08/08 A3010 RMK AO2
K08D 181335Z AUTO 00000KT 10SM 06/06 A3009 RMK AO2
K08D 181255Z AUTO 36006KT 10SM 03/03 A3008 RMK AO2
K08D 181235Z AUTO 00000KT 10SM 02/02 A3008 RMK AO2
K08D 181215Z AUTO 00000KT 3SM BR 02/02 A3008 RMK AO2
K08D 181155Z AUTO 00000KT 10SM 02/02 A3008 RMK AO2
K08D 181135Z AUTO 30004KT 10SM 02/02 A3007 RMK AO2
K08D 181115Z AUTO 22004KT 10SM 02/02 A3007 RMK AO2
K08D 181055Z AUTO 33003KT 10SM 04/04 A3007 RMK AO2
K08D 181035Z AUTO 35003KT 10SM 04/04 A3007 RMK AO2
K08D 181015Z AUTO 00000KT 10SM 04/04 A3007 RMK AO2
K08D 180955Z AUTO 00000KT 10SM 04/04 A3007 RMK AO2
K08D 180935Z AUTO 00000KT 10SM 04/04 A3007 RMK AO2
K08D 180915Z AUTO 00000KT 10SM 04/04 A3007 RMK AO2
K08D 180855Z AUTO 00000KT A3007 RMK AO2 PWINO
K08D 180835Z AUTO 00000KT 10SM 04/04 A3008 RMK AO2
K08D 180815Z AUTO 00000KT 10SM 04/04 A3008 RMK AO2
K08D 180755Z AUTO 00000KT 10SM 05/05 A3007 RMK AO2
K08D 180735Z AUTO 00000KT 10SM 05/05 A3008 RMK AO2
K08D 180715Z AUTO 00000KT 10SM 06/06 A3008 RMK AO2
K08D 180655Z AUTO 00000KT 10SM 07/07 A3007 RMK AO2
K08D 180635Z AUTO 00000KT 10SM 07/07 A3008 RMK AO2
K08D 180615Z AUTO 00000KT 10SM 07/07 A3008 RMK AO2
K08D 180555Z AUTO 00000KT 10SM 08/08 A3008 RMK AO2
K08D 180535Z AUTO 00000KT 10SM 08/08 A3008 RMK AO2
K08D 180515Z AUTO 00000KT 10SM 08/08 A3008 RMK AO2
K08D 180455Z AUTO 00000KT 10SM 09/08 A3008 RMK AO2
K08D 180435Z AUTO 03003KT 10SM 09/08 A3008 RMK AO2
K08D 180415Z AUTO 04003KT 10SM 09/08 A3007 RMK AO2
K08D 180355Z AUTO 03004KT 10SM 09/08 A3008 RMK AO2
K08D 180335Z AUTO 02004KT 10SM 10/09 A3007 RMK AO2
K08D 180315Z AUTO 00000KT 10SM 11/09 A3007 RMK AO2
K08D 180255Z AUTO 09004KT 10SM 11/09 A3006 RMK AO2
K08D 180235Z AUTO 00000KT 10SM 11/09 A3005 RMK AO2
K08D 180215Z AUTO 00000KT 10SM 11/09 A3005 RMK AO2
K08D 180155Z AUTO 00000KT 10SM 11/09 A3004 RMK AO2
K08D 180135Z AUTO 00000KT 10SM 13/09 A3003 RMK AO2
K08D 180115Z AUTO 07003KT 10SM 13/09 A3003 RMK AO2
K08D 180055Z AUTO 00000KT 10SM 14/09 A3003 RMK AO2
K08D 180035Z AUTO 00000KT 10SM 15/08 A3003 RMK AO2
K08D 180015Z AUTO 00000KT 10SM 16/08 A3002 RMK AO2
K08D 172355Z AUTO 00000KT 10SM 16/08 A3002 RMK AO2
K08D 172335Z AUTO 09004KT 10SM 16/08 A3002 RMK AO2
K08D 172315Z AUTO 12003KT 10SM 16/08 A3002 RMK AO2
K08D 172255Z AUTO 00000KT 10SM 16/07 A3002 RMK AO2
K08D 172235Z AUTO 00000KT 10SM 16/08 A3002 RMK AO2
K08D 172215Z AUTO 13004KT 10SM 16/08 A3002 RMK AO2
K08D 172155Z AUTO 00000KT 10SM 16/08 A3002 RMK AO2
K08D 172135Z AUTO 00000KT 10SM 16/08 A3003 RMK AO2
K08D 172115Z AUTO 12005KT 10SM 16/08 A3003 RMK AO2
K08D 172055Z AUTO VRB06KT 10SM 17/08 A3002 RMK AO2
K08D 172035Z AUTO 17008KT 10SM 17/08 A3002 RMK AO2
K08D 172015Z AUTO 13006G13KT 10SM 16/08 A3002 RMK AO2
K08D 171955Z AUTO 16004G10KT 10SM 15/08 A3004 RMK AO2
K08D 171935Z AUTO 19005KT 10SM 14/08 A3005 RMK AO2
K08D 171915Z AUTO VRB04G10KT 10SM 14/08 A3005 RMK AO2
K08D 171855Z AUTO 15005G11KT 10SM 13/08 A3006 RMK AO2
K08D 171835Z AUTO 11007KT 10SM 13/08 A3006 RMK AO2
K08D 171815Z AUTO 11008KT 10SM 12/08 A3006 RMK AO2
K08D 171755Z AUTO 12008KT 10SM 12/08 A3006 RMK AO2
K08D 171735Z AUTO VRB04G11KT 10SM 11/08 A3007 RMK AO2
K08D 171715Z AUTO VRB03KT 10SM 11/09 A3007 RMK AO2
K08D 171655Z AUTO 10003KT 10SM 10/08 A3008 RMK AO2
K08D 171635Z AUTO VRB03G10KT 10SM 09/08 A3009 RMK AO2
K08D 171615Z AUTO VRB05KT 10SM 09/09 A3009 RMK AO2
K08D 171555Z AUTO 09006KT 10SM 09/09 A3008 RMK AO2
K08D 171535Z AUTO 12007KT 10SM 08/08 A3008 RMK AO2
K08D 171515Z AUTO 07004KT 10SM 08/08 A3009 RMK AO2
K08D 171455Z AUTO 00000KT 10SM 08/08 A3009 RMK AO2
K08D 171435Z AUTO 06005KT 9SM 08/08 A3009 RMK AO2
K08D 171415Z AUTO 08006KT 10SM 07/07 A3010 RMK AO2
K08D 171355Z AUTO 07005KT 9SM 07/07 A3009 RMK AO2
K08D 171335Z AUTO 4SM BR 07/07 A3008 RMK AO2
K08D 171315Z AUTO 9SM 07/07 A3009 RMK AO2
K08D 171255Z AUTO VRB05KT 10SM 08/08 A3008 RMK AO2
K08D 171235Z AUTO VRB04G10KT 10SM 08/08 A3007 RMK AO2
K08D 171215Z AUTO VRB04KT 10SM 08/08 A3008 RMK AO2
K08D 171155Z AUTO 08007KT 10SM 08/08 A3007 RMK AO2
K08D 171135Z AUTO 06007KT 10SM 08/08 A3007 RMK AO2
K08D 171115Z AUTO 06006KT 10SM 08/08 A3007 RMK AO2
K08D 171055Z AUTO 09005KT 10SM 08/08 A3007 RMK AO2
K08D 171035Z AUTO 06007G12KT 020V090 10SM 08/08 A3006 RMK AO2
K08D 171015Z AUTO 07008KT 10SM 08/08 A3005 RMK AO2
K08D 170955Z AUTO 09008KT 10SM 08/08 A3006 RMK AO2
K08D 170935Z AUTO 09009KT 10SM 08/08 A3006 RMK AO2